サンフアン の空港の天気 - METARとTAF

ルイス・ムニョス・マリン国際空港 ( TJSJ / SJU ) - プエルトリコ サンフアン
飛行場実況気象(Metar)
観測時間01/21 13:56 AST (01/21 17:56 UTC)
風向・風速東北東 9m/s
視程10km以上
天気現象
少しの雲 雲底高度 1160m
全天の4割程度の雲 雲底高度 2590m
全天の4割程度の雲 雲底高度 3660m
気温28.9℃
湿度65%
気圧1015.7hPa
METARTJSJ 211756Z 07017KT 10SM FEW038 SCT085 SCT120 29/22 A3000 RMK AO2 SLP157 T02890217 10294 20239 58025 $
過去の天気等 Google飛行場航空写真 Wunderground天気予報

過去48時間のMETAR

飛行場予報(TAF)
発表時間: 1/21 13:41 AST (1/21 17:41 UTC)
予報対象時間: 21日14時 AST ~ 22日14時 AST
風向・風速東 6m/s 瞬間風速 10m/s
視程10km以上
少しの雲 雲底高度 910m
全天の4割程度の雲 雲底高度 1,070m
全天の4割程度の雲 雲底高度 2,740m
21日19時 AST から
風向・風速東 5m/s
視程10km以上
少しの雲 雲底高度 760m
22日10時 AST から
風向・風速東 8m/s 瞬間風速 11m/s
視程10km以上
天気現象周辺でしゅう雨
全天の4割程度の雲 雲底高度 850m
全天の4割程度の雲 雲底高度 1,070m
TJSJ 211741Z 2118/2218 09011G20KT P6SM FEW030 SCT035 SCT090
FM212300 08010KT P6SM FEW025
FM221400 08016G22KT P6SM VCSH SCT028 SCT035